< < Back
Terminal Aerodrome Forecast


Current Version              Previous Versions:   1  2  3  4  5  6  7  8  9  

Terminal Aerodrome Forecast

967
FTUS42 KILM 242327
TAFILM
TAF
KILM 242327Z 2500/2524 VRB03KT P6SM FEW040 SCT250
     FM251000 VRB03KT P6SM BKN120
     FM251600 24010KT P6SM VCSH SCT040 BKN080
     FM252200 20009KT P6SM -RA VCTS SCT007 SCT025 BKN040CB=



Latest METAR

527
SAUS70 KWBC 251100 RRI
MTRILM
METAR KILM 251053Z AUTO 00000KT 10SM OVC100 12/10 A2994 RMK AO2 SLP137
T01170100


USA.gov is the U.S. government's official web portal to all federal, state and local government web resources and services.